Allenton, Missouri
Current Conditions -  °F | °C
As of 7:54 PM on Friday 21 Nov 2014 (Local Time) from KSUS Reporting Station
Overcast Overcast  
Wind Chill: 40°   Ceiling: 2300
Heat Index: 43°   Visibility: 10mi
Dew Point: 25°   Wind: 5mph
Humidity: 49%   Direction: 140°SE
Pressure: 30.25"   Gusts: NA
Location:  38.5°N, 90.68°W
Report Text: KSUS 220154Z 14004KT 10SM BKN023 OVC034 06/M04 A3025 RMK AO2 SLP249 T00611039
Loading
Personal Weather Stations






























Interactive Weather Map New forecast layout! Learn more

10-Day Weather Forecast

Advertisements
Track Severe Weather on mobile